<?xml version="1.0" encoding="UTF-8" standalone="no" ?>
<gpx xmlns="http://www.topografix.com/GPX/1/1" xmlns:xsi="http://www.w3.org/2001/XMLSchema-instance" xsi:schemaLocation="http://www.topografix.com/GPX/1/1 http://www.topografix.com/GPX/1/1/gpx.xsd" version="1.1" creator="VisuGPX - https://www.visugpx.com">
  <metadata>
    <name>11775844-TRAIL D'AQUI 09 - GABRIAC - 23km et 500 D+</name>
  </metadata>
  <trk>
    <name><![CDATA[11775844-TRAIL D'AQUI 09 - GABRIAC - 23km et 500 D+]]></name>
    <trkseg>
      <trkpt lat="44.45509" lon="2.8246">
        <ele>637</ele>
        <time>2021-06-03T19:53:17Z</time>
      </trkpt>
      <trkpt lat="44.4551" lon="2.82508">
        <ele>634</ele>
        <time>2021-06-03T19:53:34Z</time>
      </trkpt>
      <trkpt lat="44.45587" lon="2.82492">
        <ele>636</ele>
        <time>2021-06-03T19:54:13Z</time>
      </trkpt>
      <trkpt lat="44.45631" lon="2.82521">
        <ele>634</ele>
        <time>2021-06-03T19:54:37Z</time>
      </trkpt>
      <trkpt lat="44.45688" lon="2.82487">
        <ele>639</ele>
        <time>2021-06-03T19:55:08Z</time>
      </trkpt>
      <trkpt lat="44.45709" lon="2.82456">
        <ele>641</ele>
        <time>2021-06-03T19:55:24Z</time>
      </trkpt>
      <trkpt lat="44.45715" lon="2.82414">
        <ele>644</ele>
        <time>2021-06-03T19:55:39Z</time>
      </trkpt>
      <trkpt lat="44.45762" lon="2.82374">
        <ele>646</ele>
        <time>2021-06-03T19:56:07Z</time>
      </trkpt>
      <trkpt lat="44.45805" lon="2.82313">
        <ele>648</ele>
        <time>2021-06-03T19:56:37Z</time>
      </trkpt>
      <trkpt lat="44.4584" lon="2.82237">
        <ele>648</ele>
        <time>2021-06-03T19:57:09Z</time>
      </trkpt>
      <trkpt lat="44.4591" lon="2.82112">
        <ele>639</ele>
        <time>2021-06-03T19:58:06Z</time>
      </trkpt>
      <trkpt lat="44.45924" lon="2.82014">
        <ele>635</ele>
        <time>2021-06-03T19:58:42Z</time>
      </trkpt>
      <trkpt lat="44.45918" lon="2.8195">
        <ele>630</ele>
        <time>2021-06-03T19:59:05Z</time>
      </trkpt>
      <trkpt lat="44.4593" lon="2.81914">
        <ele>629</ele>
        <time>2021-06-03T19:59:19Z</time>
      </trkpt>
      <trkpt lat="44.45929" lon="2.81793">
        <ele>620</ele>
        <time>2021-06-03T20:00:02Z</time>
      </trkpt>
      <trkpt lat="44.45909" lon="2.81704">
        <ele>611</ele>
        <time>2021-06-03T20:00:36Z</time>
      </trkpt>
      <trkpt lat="44.45894" lon="2.81591">
        <ele>603</ele>
        <time>2021-06-03T20:01:17Z</time>
      </trkpt>
      <trkpt lat="44.45844" lon="2.81503">
        <ele>597</ele>
        <time>2021-06-03T20:01:57Z</time>
      </trkpt>
      <trkpt lat="44.45817" lon="2.81448">
        <ele>596</ele>
        <time>2021-06-03T20:02:21Z</time>
      </trkpt>
      <trkpt lat="44.45802" lon="2.81372">
        <ele>595</ele>
        <time>2021-06-03T20:02:49Z</time>
      </trkpt>
      <trkpt lat="44.45783" lon="2.81266">
        <ele>590</ele>
        <time>2021-06-03T20:03:28Z</time>
      </trkpt>
      <trkpt lat="44.45795" lon="2.81214">
        <ele>590</ele>
        <time>2021-06-03T20:03:47Z</time>
      </trkpt>
      <trkpt lat="44.45826" lon="2.81196">
        <ele>594</ele>
        <time>2021-06-03T20:04:04Z</time>
      </trkpt>
      <trkpt lat="44.45892" lon="2.81109">
        <ele>585</ele>
        <time>2021-06-03T20:04:50Z</time>
      </trkpt>
      <trkpt lat="44.45967" lon="2.81116">
        <ele>580</ele>
        <time>2021-06-03T20:05:27Z</time>
      </trkpt>
      <trkpt lat="44.46004" lon="2.81097">
        <ele>570</ele>
        <time>2021-06-03T20:05:47Z</time>
      </trkpt>
      <trkpt lat="44.45961" lon="2.81072">
        <ele>571</ele>
        <time>2021-06-03T20:06:10Z</time>
      </trkpt>
      <trkpt lat="44.45885" lon="2.81027">
        <ele>569</ele>
        <time>2021-06-03T20:06:52Z</time>
      </trkpt>
      <trkpt lat="44.45787" lon="2.81005">
        <ele>567</ele>
        <time>2021-06-03T20:07:41Z</time>
      </trkpt>
      <trkpt lat="44.45732" lon="2.81133">
        <ele>579</ele>
        <time>2021-06-03T20:08:35Z</time>
      </trkpt>
      <trkpt lat="44.45707" lon="2.81138">
        <ele>581</ele>
        <time>2021-06-03T20:08:47Z</time>
      </trkpt>
      <trkpt lat="44.45667" lon="2.80962">
        <ele>573</ele>
        <time>2021-06-03T20:09:53Z</time>
      </trkpt>
      <trkpt lat="44.45639" lon="2.80853">
        <ele>570</ele>
        <time>2021-06-03T20:10:35Z</time>
      </trkpt>
      <trkpt lat="44.4561" lon="2.80798">
        <ele>576</ele>
        <time>2021-06-03T20:10:59Z</time>
      </trkpt>
      <trkpt lat="44.45567" lon="2.8076">
        <ele>582</ele>
        <time>2021-06-03T20:11:24Z</time>
      </trkpt>
      <trkpt lat="44.45502" lon="2.80815">
        <ele>588</ele>
        <time>2021-06-03T20:12:02Z</time>
      </trkpt>
      <trkpt lat="44.45426" lon="2.80932">
        <ele>604</ele>
        <time>2021-06-03T20:12:59Z</time>
      </trkpt>
      <trkpt lat="44.45403" lon="2.81111">
        <ele>623</ele>
        <time>2021-06-03T20:14:04Z</time>
      </trkpt>
      <trkpt lat="44.45445" lon="2.81232">
        <ele>623</ele>
        <time>2021-06-03T20:14:52Z</time>
      </trkpt>
      <trkpt lat="44.4545" lon="2.81359">
        <ele>621</ele>
        <time>2021-06-03T20:15:37Z</time>
      </trkpt>
      <trkpt lat="44.45419" lon="2.81492">
        <ele>627</ele>
        <time>2021-06-03T20:16:27Z</time>
      </trkpt>
      <trkpt lat="44.45432" lon="2.81643">
        <ele>627</ele>
        <time>2021-06-03T20:17:22Z</time>
      </trkpt>
      <trkpt lat="44.45384" lon="2.81847">
        <ele>632</ele>
        <time>2021-06-03T20:18:38Z</time>
      </trkpt>
      <trkpt lat="44.45375" lon="2.81888">
        <ele>631</ele>
        <time>2021-06-03T20:18:54Z</time>
      </trkpt>
      <trkpt lat="44.4538" lon="2.81967">
        <ele>634</ele>
        <time>2021-06-03T20:19:22Z</time>
      </trkpt>
      <trkpt lat="44.45363" lon="2.82203">
        <ele>635</ele>
        <time>2021-06-03T20:20:47Z</time>
      </trkpt>
      <trkpt lat="44.45446" lon="2.82346">
        <ele>638</ele>
        <time>2021-06-03T20:21:53Z</time>
      </trkpt>
      <trkpt lat="44.45449" lon="2.82392">
        <ele>637</ele>
        <time>2021-06-03T20:22:09Z</time>
      </trkpt>
      <trkpt lat="44.45458" lon="2.82439">
        <ele>636</ele>
        <time>2021-06-03T20:22:27Z</time>
      </trkpt>
      <trkpt lat="44.45458" lon="2.82476">
        <ele>635</ele>
        <time>2021-06-03T20:22:40Z</time>
      </trkpt>
      <trkpt lat="44.45451" lon="2.82485">
        <ele>634</ele>
        <time>2021-06-03T20:22:45Z</time>
      </trkpt>
      <trkpt lat="44.45419" lon="2.82473">
        <ele>634</ele>
        <time>2021-06-03T20:23:01Z</time>
      </trkpt>
      <trkpt lat="44.4536" lon="2.82387">
        <ele>631</ele>
        <time>2021-06-03T20:23:44Z</time>
      </trkpt>
      <trkpt lat="44.45301" lon="2.82416">
        <ele>622</ele>
        <time>2021-06-03T20:24:15Z</time>
      </trkpt>
      <trkpt lat="44.45264" lon="2.82433">
        <ele>613</ele>
        <time>2021-06-03T20:24:34Z</time>
      </trkpt>
      <trkpt lat="44.45231" lon="2.82397">
        <ele>608</ele>
        <time>2021-06-03T20:24:55Z</time>
      </trkpt>
      <trkpt lat="44.4522" lon="2.82474">
        <ele>602</ele>
        <time>2021-06-03T20:25:23Z</time>
      </trkpt>
      <trkpt lat="44.45198" lon="2.8249">
        <ele>598</ele>
        <time>2021-06-03T20:25:36Z</time>
      </trkpt>
      <trkpt lat="44.45197" lon="2.82526">
        <ele>595</ele>
        <time>2021-06-03T20:25:49Z</time>
      </trkpt>
      <trkpt lat="44.45176" lon="2.82558">
        <ele>591</ele>
        <time>2021-06-03T20:26:04Z</time>
      </trkpt>
      <trkpt lat="44.45097" lon="2.82542">
        <ele>586</ele>
        <time>2021-06-03T20:26:44Z</time>
      </trkpt>
      <trkpt lat="44.45032" lon="2.82478">
        <ele>583</ele>
        <time>2021-06-03T20:27:24Z</time>
      </trkpt>
      <trkpt lat="44.44801" lon="2.82437">
        <ele>579</ele>
        <time>2021-06-03T20:29:20Z</time>
      </trkpt>
      <trkpt lat="44.44754" lon="2.8244">
        <ele>577</ele>
        <time>2021-06-03T20:29:44Z</time>
      </trkpt>
      <trkpt lat="44.44651" lon="2.825">
        <ele>571</ele>
        <time>2021-06-03T20:30:40Z</time>
      </trkpt>
      <trkpt lat="44.4458" lon="2.82398">
        <ele>565</ele>
        <time>2021-06-03T20:31:31Z</time>
      </trkpt>
      <trkpt lat="44.44426" lon="2.8245">
        <ele>566</ele>
        <time>2021-06-03T20:32:50Z</time>
      </trkpt>
      <trkpt lat="44.44259" lon="2.82489">
        <ele>559</ele>
        <time>2021-06-03T20:34:15Z</time>
      </trkpt>
      <trkpt lat="44.44163" lon="2.82496">
        <ele>556</ele>
        <time>2021-06-03T20:35:03Z</time>
      </trkpt>
      <trkpt lat="44.44101" lon="2.82447">
        <ele>553</ele>
        <time>2021-06-03T20:35:38Z</time>
      </trkpt>
      <trkpt lat="44.44127" lon="2.82245">
        <ele>551</ele>
        <time>2021-06-03T20:36:52Z</time>
      </trkpt>
      <trkpt lat="44.44243" lon="2.82085">
        <ele>549</ele>
        <time>2021-06-03T20:38:13Z</time>
      </trkpt>
      <trkpt lat="44.44247" lon="2.82014">
        <ele>551</ele>
        <time>2021-06-03T20:38:39Z</time>
      </trkpt>
      <trkpt lat="44.44317" lon="2.81864">
        <ele>556</ele>
        <time>2021-06-03T20:39:43Z</time>
      </trkpt>
      <trkpt lat="44.4438" lon="2.8169">
        <ele>555</ele>
        <time>2021-06-03T20:40:52Z</time>
      </trkpt>
      <trkpt lat="44.44394" lon="2.81613">
        <ele>554</ele>
        <time>2021-06-03T20:41:21Z</time>
      </trkpt>
      <trkpt lat="44.44392" lon="2.81569">
        <ele>554</ele>
        <time>2021-06-03T20:41:37Z</time>
      </trkpt>
      <trkpt lat="44.4441" lon="2.81531">
        <ele>555</ele>
        <time>2021-06-03T20:41:53Z</time>
      </trkpt>
      <trkpt lat="44.44427" lon="2.81359">
        <ele>549</ele>
        <time>2021-06-03T20:42:55Z</time>
      </trkpt>
      <trkpt lat="44.44432" lon="2.81261">
        <ele>546</ele>
        <time>2021-06-03T20:43:30Z</time>
      </trkpt>
      <trkpt lat="44.44449" lon="2.81214">
        <ele>545</ele>
        <time>2021-06-03T20:43:49Z</time>
      </trkpt>
      <trkpt lat="44.44475" lon="2.81208">
        <ele>546</ele>
        <time>2021-06-03T20:44:02Z</time>
      </trkpt>
      <trkpt lat="44.44478" lon="2.81156">
        <ele>545</ele>
        <time>2021-06-03T20:44:21Z</time>
      </trkpt>
      <trkpt lat="44.44514" lon="2.81102">
        <ele>544</ele>
        <time>2021-06-03T20:44:47Z</time>
      </trkpt>
      <trkpt lat="44.44542" lon="2.80999">
        <ele>546</ele>
        <time>2021-06-03T20:45:26Z</time>
      </trkpt>
      <trkpt lat="44.44621" lon="2.80891">
        <ele>555</ele>
        <time>2021-06-03T20:46:22Z</time>
      </trkpt>
      <trkpt lat="44.44683" lon="2.80714">
        <ele>557</ele>
        <time>2021-06-03T20:47:32Z</time>
      </trkpt>
      <trkpt lat="44.4479" lon="2.80223">
        <ele>544</ele>
        <time>2021-06-03T20:50:36Z</time>
      </trkpt>
      <trkpt lat="44.44861" lon="2.80061">
        <ele>543</ele>
        <time>2021-06-03T20:51:43Z</time>
      </trkpt>
      <trkpt lat="44.4486" lon="2.79913">
        <ele>542</ele>
        <time>2021-06-03T20:52:36Z</time>
      </trkpt>
      <trkpt lat="44.44936" lon="2.79684">
        <ele>548</ele>
        <time>2021-06-03T20:54:07Z</time>
      </trkpt>
      <trkpt lat="44.44949" lon="2.79632">
        <ele>549</ele>
        <time>2021-06-03T20:54:26Z</time>
      </trkpt>
      <trkpt lat="44.45062" lon="2.79457">
        <ele>558</ele>
        <time>2021-06-03T20:55:51Z</time>
      </trkpt>
      <trkpt lat="44.45063" lon="2.79379">
        <ele>558</ele>
        <time>2021-06-03T20:56:18Z</time>
      </trkpt>
      <trkpt lat="44.45093" lon="2.7931">
        <ele>561</ele>
        <time>2021-06-03T20:56:47Z</time>
      </trkpt>
      <trkpt lat="44.45047" lon="2.79185">
        <ele>565</ele>
        <time>2021-06-03T20:57:37Z</time>
      </trkpt>
      <trkpt lat="44.45067" lon="2.79158">
        <ele>568</ele>
        <time>2021-06-03T20:57:51Z</time>
      </trkpt>
      <trkpt lat="44.45077" lon="2.79113">
        <ele>573</ele>
        <time>2021-06-03T20:58:08Z</time>
      </trkpt>
      <trkpt lat="44.45128" lon="2.79079">
        <ele>574</ele>
        <time>2021-06-03T20:58:36Z</time>
      </trkpt>
      <trkpt lat="44.45233" lon="2.78849">
        <ele>577</ele>
        <time>2021-06-03T21:00:14Z</time>
      </trkpt>
      <trkpt lat="44.45226" lon="2.78804">
        <ele>577</ele>
        <time>2021-06-03T21:00:30Z</time>
      </trkpt>
      <trkpt lat="44.45245" lon="2.78698">
        <ele>578</ele>
        <time>2021-06-03T21:01:09Z</time>
      </trkpt>
      <trkpt lat="44.45265" lon="2.78631">
        <ele>579</ele>
        <time>2021-06-03T21:01:35Z</time>
      </trkpt>
      <trkpt lat="44.45277" lon="2.7851">
        <ele>576</ele>
        <time>2021-06-03T21:02:19Z</time>
      </trkpt>
      <trkpt lat="44.45301" lon="2.78459">
        <ele>579</ele>
        <time>2021-06-03T21:02:41Z</time>
      </trkpt>
      <trkpt lat="44.45275" lon="2.78408">
        <ele>576</ele>
        <time>2021-06-03T21:03:03Z</time>
      </trkpt>
      <trkpt lat="44.45256" lon="2.78177">
        <ele>575</ele>
        <time>2021-06-03T21:04:26Z</time>
      </trkpt>
      <trkpt lat="44.45265" lon="2.78137">
        <ele>574</ele>
        <time>2021-06-03T21:04:41Z</time>
      </trkpt>
      <trkpt lat="44.45302" lon="2.78024">
        <ele>578</ele>
        <time>2021-06-03T21:05:26Z</time>
      </trkpt>
      <trkpt lat="44.45312" lon="2.77977">
        <ele>580</ele>
        <time>2021-06-03T21:05:43Z</time>
      </trkpt>
      <trkpt lat="44.45281" lon="2.77935">
        <ele>580</ele>
        <time>2021-06-03T21:06:05Z</time>
      </trkpt>
      <trkpt lat="44.45283" lon="2.77924">
        <ele>580</ele>
        <time>2021-06-03T21:06:09Z</time>
      </trkpt>
      <trkpt lat="44.4527" lon="2.77913">
        <ele>580</ele>
        <time>2021-06-03T21:06:16Z</time>
      </trkpt>
      <trkpt lat="44.45259" lon="2.7791">
        <ele>579</ele>
        <time>2021-06-03T21:06:22Z</time>
      </trkpt>
      <trkpt lat="44.45251" lon="2.77928">
        <ele>579</ele>
        <time>2021-06-03T21:06:30Z</time>
      </trkpt>
      <trkpt lat="44.4524" lon="2.77923">
        <ele>578</ele>
        <time>2021-06-03T21:06:35Z</time>
      </trkpt>
      <trkpt lat="44.45234" lon="2.77931">
        <ele>577</ele>
        <time>2021-06-03T21:06:40Z</time>
      </trkpt>
      <trkpt lat="44.452" lon="2.77909">
        <ele>575</ele>
        <time>2021-06-03T21:06:58Z</time>
      </trkpt>
      <trkpt lat="44.45222" lon="2.77864">
        <ele>574</ele>
        <time>2021-06-03T21:07:18Z</time>
      </trkpt>
      <trkpt lat="44.45258" lon="2.77867">
        <ele>576</ele>
        <time>2021-06-03T21:07:36Z</time>
      </trkpt>
      <trkpt lat="44.45282" lon="2.77863">
        <ele>578</ele>
        <time>2021-06-03T21:07:48Z</time>
      </trkpt>
      <trkpt lat="44.45307" lon="2.77861">
        <ele>579</ele>
        <time>2021-06-03T21:08:01Z</time>
      </trkpt>
      <trkpt lat="44.45327" lon="2.77856">
        <ele>580</ele>
        <time>2021-06-03T21:08:11Z</time>
      </trkpt>
      <trkpt lat="44.45346" lon="2.77849">
        <ele>581</ele>
        <time>2021-06-03T21:08:21Z</time>
      </trkpt>
      <trkpt lat="44.45386" lon="2.77865">
        <ele>584</ele>
        <time>2021-06-03T21:08:41Z</time>
      </trkpt>
      <trkpt lat="44.45468" lon="2.77864">
        <ele>589</ele>
        <time>2021-06-03T21:09:22Z</time>
      </trkpt>
      <trkpt lat="44.45541" lon="2.77886">
        <ele>594</ele>
        <time>2021-06-03T21:10:00Z</time>
      </trkpt>
      <trkpt lat="44.45656" lon="2.77874">
        <ele>603</ele>
        <time>2021-06-03T21:10:57Z</time>
      </trkpt>
      <trkpt lat="44.45748" lon="2.77871">
        <ele>612</ele>
        <time>2021-06-03T21:11:43Z</time>
      </trkpt>
      <trkpt lat="44.45778" lon="2.77907">
        <ele>615</ele>
        <time>2021-06-03T21:12:03Z</time>
      </trkpt>
      <trkpt lat="44.45844" lon="2.77942">
        <ele>622</ele>
        <time>2021-06-03T21:12:39Z</time>
      </trkpt>
      <trkpt lat="44.45967" lon="2.77982">
        <ele>619</ele>
        <time>2021-06-03T21:13:42Z</time>
      </trkpt>
      <trkpt lat="44.4619" lon="2.7808">
        <ele>621</ele>
        <time>2021-06-03T21:15:39Z</time>
      </trkpt>
      <trkpt lat="44.46251" lon="2.78107">
        <ele>619</ele>
        <time>2021-06-03T21:16:11Z</time>
      </trkpt>
      <trkpt lat="44.46275" lon="2.78155">
        <ele>617</ele>
        <time>2021-06-03T21:16:32Z</time>
      </trkpt>
      <trkpt lat="44.46349" lon="2.78148">
        <ele>614</ele>
        <time>2021-06-03T21:17:09Z</time>
      </trkpt>
      <trkpt lat="44.46349" lon="2.78161">
        <ele>614</ele>
        <time>2021-06-03T21:17:13Z</time>
      </trkpt>
      <trkpt lat="44.46364" lon="2.78437">
        <ele>608</ele>
        <time>2021-06-03T21:18:52Z</time>
      </trkpt>
      <trkpt lat="44.46419" lon="2.78544">
        <ele>606</ele>
        <time>2021-06-03T21:19:39Z</time>
      </trkpt>
      <trkpt lat="44.46369" lon="2.78747">
        <ele>598</ele>
        <time>2021-06-03T21:20:56Z</time>
      </trkpt>
      <trkpt lat="44.46327" lon="2.78919">
        <ele>592</ele>
        <time>2021-06-03T21:22:01Z</time>
      </trkpt>
      <trkpt lat="44.46339" lon="2.7902">
        <ele>584</ele>
        <time>2021-06-03T21:22:38Z</time>
      </trkpt>
      <trkpt lat="44.4633" lon="2.7912">
        <ele>579</ele>
        <time>2021-06-03T21:23:14Z</time>
      </trkpt>
      <trkpt lat="44.46362" lon="2.7923">
        <ele>572</ele>
        <time>2021-06-03T21:23:56Z</time>
      </trkpt>
      <trkpt lat="44.46362" lon="2.79363">
        <ele>567</ele>
        <time>2021-06-03T21:24:43Z</time>
      </trkpt>
      <trkpt lat="44.46491" lon="2.79649">
        <ele>573</ele>
        <time>2021-06-03T21:26:44Z</time>
      </trkpt>
      <trkpt lat="44.46539" lon="2.79677">
        <ele>572</ele>
        <time>2021-06-03T21:27:10Z</time>
      </trkpt>
      <trkpt lat="44.46553" lon="2.79636">
        <ele>577</ele>
        <time>2021-06-03T21:27:27Z</time>
      </trkpt>
      <trkpt lat="44.46668" lon="2.79672">
        <ele>575</ele>
        <time>2021-06-03T21:28:26Z</time>
      </trkpt>
      <trkpt lat="44.46759" lon="2.79779">
        <ele>572</ele>
        <time>2021-06-03T21:29:25Z</time>
      </trkpt>
      <trkpt lat="44.4689" lon="2.79996">
        <ele>577</ele>
        <time>2021-06-03T21:31:06Z</time>
      </trkpt>
      <trkpt lat="44.46956" lon="2.79751">
        <ele>601</ele>
        <time>2021-06-03T21:32:40Z</time>
      </trkpt>
      <trkpt lat="44.46954" lon="2.79728">
        <ele>603</ele>
        <time>2021-06-03T21:32:48Z</time>
      </trkpt>
      <trkpt lat="44.46932" lon="2.79665">
        <ele>605</ele>
        <time>2021-06-03T21:33:13Z</time>
      </trkpt>
      <trkpt lat="44.46958" lon="2.79652">
        <ele>610</ele>
        <time>2021-06-03T21:33:27Z</time>
      </trkpt>
      <trkpt lat="44.46991" lon="2.79683">
        <ele>616</ele>
        <time>2021-06-03T21:33:47Z</time>
      </trkpt>
      <trkpt lat="44.47023" lon="2.79675">
        <ele>622</ele>
        <time>2021-06-03T21:34:03Z</time>
      </trkpt>
      <trkpt lat="44.47271" lon="2.79516">
        <ele>650</ele>
        <time>2021-06-03T21:36:20Z</time>
      </trkpt>
      <trkpt lat="44.4742" lon="2.79463">
        <ele>651</ele>
        <time>2021-06-03T21:37:37Z</time>
      </trkpt>
      <trkpt lat="44.47487" lon="2.79478">
        <ele>651</ele>
        <time>2021-06-03T21:38:11Z</time>
      </trkpt>
      <trkpt lat="44.47524" lon="2.79487">
        <ele>653</ele>
        <time>2021-06-03T21:38:29Z</time>
      </trkpt>
      <trkpt lat="44.47547" lon="2.79455">
        <ele>652</ele>
        <time>2021-06-03T21:38:46Z</time>
      </trkpt>
      <trkpt lat="44.47612" lon="2.79461">
        <ele>655</ele>
        <time>2021-06-03T21:39:18Z</time>
      </trkpt>
      <trkpt lat="44.47579" lon="2.79366">
        <ele>647</ele>
        <time>2021-06-03T21:39:56Z</time>
      </trkpt>
      <trkpt lat="44.47569" lon="2.79278">
        <ele>639</ele>
        <time>2021-06-03T21:40:28Z</time>
      </trkpt>
      <trkpt lat="44.47589" lon="2.792">
        <ele>644</ele>
        <time>2021-06-03T21:40:57Z</time>
      </trkpt>
      <trkpt lat="44.47644" lon="2.7919">
        <ele>649</ele>
        <time>2021-06-03T21:41:25Z</time>
      </trkpt>
      <trkpt lat="44.4772" lon="2.79114">
        <ele>659</ele>
        <time>2021-06-03T21:42:12Z</time>
      </trkpt>
      <trkpt lat="44.47748" lon="2.79102">
        <ele>661</ele>
        <time>2021-06-03T21:42:27Z</time>
      </trkpt>
      <trkpt lat="44.47761" lon="2.79017">
        <ele>667</ele>
        <time>2021-06-03T21:42:58Z</time>
      </trkpt>
      <trkpt lat="44.4795" lon="2.79159">
        <ele>693</ele>
        <time>2021-06-03T21:44:45Z</time>
      </trkpt>
      <trkpt lat="44.47975" lon="2.7908">
        <ele>700</ele>
        <time>2021-06-03T21:45:16Z</time>
      </trkpt>
      <trkpt lat="44.4804" lon="2.7902">
        <ele>710</ele>
        <time>2021-06-03T21:45:55Z</time>
      </trkpt>
      <trkpt lat="44.48048" lon="2.79086">
        <ele>716</ele>
        <time>2021-06-03T21:46:19Z</time>
      </trkpt>
      <trkpt lat="44.48081" lon="2.79167">
        <ele>723</ele>
        <time>2021-06-03T21:46:52Z</time>
      </trkpt>
      <trkpt lat="44.48106" lon="2.79302">
        <ele>729</ele>
        <time>2021-06-03T21:47:42Z</time>
      </trkpt>
      <trkpt lat="44.48149" lon="2.79309">
        <ele>737</ele>
        <time>2021-06-03T21:48:03Z</time>
      </trkpt>
      <trkpt lat="44.48165" lon="2.79375">
        <ele>740</ele>
        <time>2021-06-03T21:48:28Z</time>
      </trkpt>
      <trkpt lat="44.48248" lon="2.79463">
        <ele>756</ele>
        <time>2021-06-03T21:49:20Z</time>
      </trkpt>
      <trkpt lat="44.48297" lon="2.79491">
        <ele>767</ele>
        <time>2021-06-03T21:49:47Z</time>
      </trkpt>
      <trkpt lat="44.48316" lon="2.79519">
        <ele>770</ele>
        <time>2021-06-03T21:50:01Z</time>
      </trkpt>
      <trkpt lat="44.48352" lon="2.79495">
        <ele>780</ele>
        <time>2021-06-03T21:50:21Z</time>
      </trkpt>
      <trkpt lat="44.48371" lon="2.79501">
        <ele>784</ele>
        <time>2021-06-03T21:50:30Z</time>
      </trkpt>
      <trkpt lat="44.48389" lon="2.7955">
        <ele>783</ele>
        <time>2021-06-03T21:50:50Z</time>
      </trkpt>
      <trkpt lat="44.4845" lon="2.79628">
        <ele>789</ele>
        <time>2021-06-03T21:51:31Z</time>
      </trkpt>
      <trkpt lat="44.48498" lon="2.7976">
        <ele>794</ele>
        <time>2021-06-03T21:52:24Z</time>
      </trkpt>
      <trkpt lat="44.48685" lon="2.79866">
        <ele>796</ele>
        <time>2021-06-03T21:54:05Z</time>
      </trkpt>
      <trkpt lat="44.48704" lon="2.79967">
        <ele>794</ele>
        <time>2021-06-03T21:54:42Z</time>
      </trkpt>
      <trkpt lat="44.48726" lon="2.80059">
        <ele>799</ele>
        <time>2021-06-03T21:55:17Z</time>
      </trkpt>
      <trkpt lat="44.48703" lon="2.80142">
        <ele>800</ele>
        <time>2021-06-03T21:55:49Z</time>
      </trkpt>
      <trkpt lat="44.48727" lon="2.80218">
        <ele>799</ele>
        <time>2021-06-03T21:56:19Z</time>
      </trkpt>
      <trkpt lat="44.48864" lon="2.80366">
        <ele>796</ele>
        <time>2021-06-03T21:57:45Z</time>
      </trkpt>
      <trkpt lat="44.4886" lon="2.80501">
        <ele>788</ele>
        <time>2021-06-03T21:58:33Z</time>
      </trkpt>
      <trkpt lat="44.48904" lon="2.80575">
        <ele>789</ele>
        <time>2021-06-03T21:59:08Z</time>
      </trkpt>
      <trkpt lat="44.48889" lon="2.8066">
        <ele>794</ele>
        <time>2021-06-03T21:59:39Z</time>
      </trkpt>
      <trkpt lat="44.48953" lon="2.80846">
        <ele>794</ele>
        <time>2021-06-03T22:00:53Z</time>
      </trkpt>
      <trkpt lat="44.48957" lon="2.81134">
        <ele>779</ele>
        <time>2021-06-03T22:02:36Z</time>
      </trkpt>
      <trkpt lat="44.48904" lon="2.81287">
        <ele>771</ele>
        <time>2021-06-03T22:03:36Z</time>
      </trkpt>
      <trkpt lat="44.48924" lon="2.81543">
        <ele>770</ele>
        <time>2021-06-03T22:05:08Z</time>
      </trkpt>
      <trkpt lat="44.49039" lon="2.81627">
        <ele>752</ele>
        <time>2021-06-03T22:06:13Z</time>
      </trkpt>
      <trkpt lat="44.49046" lon="2.81814">
        <ele>738</ele>
        <time>2021-06-03T22:07:20Z</time>
      </trkpt>
      <trkpt lat="44.49069" lon="2.81892">
        <ele>723</ele>
        <time>2021-06-03T22:07:50Z</time>
      </trkpt>
      <trkpt lat="44.49055" lon="2.8193">
        <ele>722</ele>
        <time>2021-06-03T22:08:05Z</time>
      </trkpt>
      <trkpt lat="44.4906" lon="2.81954">
        <ele>718</ele>
        <time>2021-06-03T22:08:14Z</time>
      </trkpt>
      <trkpt lat="44.49104" lon="2.8203">
        <ele>704</ele>
        <time>2021-06-03T22:08:49Z</time>
      </trkpt>
      <trkpt lat="44.49204" lon="2.82177">
        <ele>693</ele>
        <time>2021-06-03T22:10:02Z</time>
      </trkpt>
      <trkpt lat="44.49086" lon="2.82144">
        <ele>685</ele>
        <time>2021-06-03T22:11:02Z</time>
      </trkpt>
      <trkpt lat="44.49005" lon="2.82188">
        <ele>676</ele>
        <time>2021-06-03T22:11:45Z</time>
      </trkpt>
      <trkpt lat="44.4893" lon="2.82256">
        <ele>676</ele>
        <time>2021-06-03T22:12:30Z</time>
      </trkpt>
      <trkpt lat="44.48814" lon="2.82308">
        <ele>677</ele>
        <time>2021-06-03T22:13:31Z</time>
      </trkpt>
      <trkpt lat="44.48764" lon="2.82291">
        <ele>677</ele>
        <time>2021-06-03T22:13:57Z</time>
      </trkpt>
      <trkpt lat="44.48703" lon="2.82426">
        <ele>668</ele>
        <time>2021-06-03T22:14:54Z</time>
      </trkpt>
      <trkpt lat="44.48618" lon="2.82434">
        <ele>663</ele>
        <time>2021-06-03T22:15:36Z</time>
      </trkpt>
      <trkpt lat="44.48533" lon="2.82405">
        <ele>650</ele>
        <time>2021-06-03T22:16:20Z</time>
      </trkpt>
      <trkpt lat="44.48458" lon="2.82329">
        <ele>639</ele>
        <time>2021-06-03T22:17:07Z</time>
      </trkpt>
      <trkpt lat="44.48211" lon="2.82311">
        <ele>627</ele>
        <time>2021-06-03T22:19:10Z</time>
      </trkpt>
      <trkpt lat="44.4806" lon="2.82335">
        <ele>625</ele>
        <time>2021-06-03T22:20:26Z</time>
      </trkpt>
      <trkpt lat="44.47861" lon="2.82497">
        <ele>609</ele>
        <time>2021-06-03T22:22:22Z</time>
      </trkpt>
      <trkpt lat="44.47778" lon="2.82433">
        <ele>609</ele>
        <time>2021-06-03T22:23:09Z</time>
      </trkpt>
      <trkpt lat="44.47741" lon="2.82352">
        <ele>615</ele>
        <time>2021-06-03T22:23:43Z</time>
      </trkpt>
      <trkpt lat="44.47653" lon="2.82318">
        <ele>621</ele>
        <time>2021-06-03T22:24:29Z</time>
      </trkpt>
      <trkpt lat="44.47636" lon="2.8222">
        <ele>614</ele>
        <time>2021-06-03T22:25:05Z</time>
      </trkpt>
      <trkpt lat="44.47562" lon="2.82165">
        <ele>612</ele>
        <time>2021-06-03T22:25:47Z</time>
      </trkpt>
      <trkpt lat="44.47383" lon="2.82112">
        <ele>595</ele>
        <time>2021-06-03T22:27:18Z</time>
      </trkpt>
      <trkpt lat="44.47248" lon="2.82048">
        <ele>580</ele>
        <time>2021-06-03T22:28:30Z</time>
      </trkpt>
      <trkpt lat="44.47178" lon="2.82001">
        <ele>572</ele>
        <time>2021-06-03T22:29:09Z</time>
      </trkpt>
      <trkpt lat="44.47142" lon="2.81977">
        <ele>570</ele>
        <time>2021-06-03T22:29:29Z</time>
      </trkpt>
      <trkpt lat="44.47077" lon="2.81984">
        <ele>567</ele>
        <time>2021-06-03T22:30:01Z</time>
      </trkpt>
      <trkpt lat="44.47058" lon="2.82002">
        <ele>567</ele>
        <time>2021-06-03T22:30:13Z</time>
      </trkpt>
      <trkpt lat="44.47027" lon="2.82105">
        <ele>577</ele>
        <time>2021-06-03T22:30:53Z</time>
      </trkpt>
      <trkpt lat="44.4696" lon="2.82073">
        <ele>581</ele>
        <time>2021-06-03T22:31:28Z</time>
      </trkpt>
      <trkpt lat="44.46887" lon="2.8208">
        <ele>592</ele>
        <time>2021-06-03T22:32:05Z</time>
      </trkpt>
      <trkpt lat="44.46864" lon="2.82062">
        <ele>593</ele>
        <time>2021-06-03T22:32:18Z</time>
      </trkpt>
      <trkpt lat="44.46837" lon="2.82082">
        <ele>598</ele>
        <time>2021-06-03T22:32:33Z</time>
      </trkpt>
      <trkpt lat="44.46784" lon="2.8208">
        <ele>606</ele>
        <time>2021-06-03T22:33:00Z</time>
      </trkpt>
      <trkpt lat="44.46754" lon="2.82087">
        <ele>612</ele>
        <time>2021-06-03T22:33:15Z</time>
      </trkpt>
      <trkpt lat="44.4664" lon="2.82004">
        <ele>618</ele>
        <time>2021-06-03T22:34:19Z</time>
      </trkpt>
      <trkpt lat="44.46503" lon="2.82105">
        <ele>645</ele>
        <time>2021-06-03T22:35:37Z</time>
      </trkpt>
      <trkpt lat="44.46435" lon="2.82139">
        <ele>651</ele>
        <time>2021-06-03T22:36:13Z</time>
      </trkpt>
      <trkpt lat="44.46387" lon="2.82291">
        <ele>660</ele>
        <time>2021-06-03T22:37:12Z</time>
      </trkpt>
      <trkpt lat="44.46324" lon="2.82399">
        <ele>662</ele>
        <time>2021-06-03T22:38:02Z</time>
      </trkpt>
      <trkpt lat="44.46229" lon="2.82459">
        <ele>662</ele>
        <time>2021-06-03T22:38:54Z</time>
      </trkpt>
      <trkpt lat="44.4618" lon="2.8247">
        <ele>661</ele>
        <time>2021-06-03T22:39:19Z</time>
      </trkpt>
      <trkpt lat="44.46148" lon="2.82529">
        <ele>656</ele>
        <time>2021-06-03T22:39:45Z</time>
      </trkpt>
      <trkpt lat="44.46288" lon="2.82565">
        <ele>652</ele>
        <time>2021-06-03T22:40:57Z</time>
      </trkpt>
      <trkpt lat="44.46388" lon="2.8261">
        <ele>651</ele>
        <time>2021-06-03T22:41:49Z</time>
      </trkpt>
      <trkpt lat="44.46637" lon="2.82769">
        <ele>653</ele>
        <time>2021-06-03T22:44:06Z</time>
      </trkpt>
      <trkpt lat="44.4667" lon="2.82829">
        <ele>653</ele>
        <time>2021-06-03T22:44:33Z</time>
      </trkpt>
      <trkpt lat="44.46669" lon="2.82959">
        <ele>644</ele>
        <time>2021-06-03T22:45:20Z</time>
      </trkpt>
      <trkpt lat="44.46792" lon="2.83002">
        <ele>647</ele>
        <time>2021-06-03T22:46:23Z</time>
      </trkpt>
      <trkpt lat="44.46856" lon="2.83069">
        <ele>636</ele>
        <time>2021-06-03T22:47:03Z</time>
      </trkpt>
      <trkpt lat="44.4699" lon="2.83182">
        <ele>642</ele>
        <time>2021-06-03T22:48:21Z</time>
      </trkpt>
      <trkpt lat="44.46981" lon="2.83356">
        <ele>638</ele>
        <time>2021-06-03T22:49:24Z</time>
      </trkpt>
      <trkpt lat="44.46986" lon="2.83516">
        <ele>638</ele>
        <time>2021-06-03T22:50:21Z</time>
      </trkpt>
      <trkpt lat="44.46965" lon="2.83588">
        <ele>642</ele>
        <time>2021-06-03T22:50:48Z</time>
      </trkpt>
      <trkpt lat="44.47003" lon="2.83727">
        <ele>645</ele>
        <time>2021-06-03T22:51:42Z</time>
      </trkpt>
      <trkpt lat="44.47018" lon="2.83917">
        <ele>642</ele>
        <time>2021-06-03T22:52:50Z</time>
      </trkpt>
      <trkpt lat="44.46938" lon="2.83924">
        <ele>657</ele>
        <time>2021-06-03T22:53:30Z</time>
      </trkpt>
      <trkpt lat="44.46839" lon="2.84002">
        <ele>670</ele>
        <time>2021-06-03T22:54:27Z</time>
      </trkpt>
      <trkpt lat="44.46712" lon="2.84061">
        <ele>674</ele>
        <time>2021-06-03T22:55:34Z</time>
      </trkpt>
      <trkpt lat="44.46582" lon="2.8407">
        <ele>682</ele>
        <time>2021-06-03T22:56:39Z</time>
      </trkpt>
      <trkpt lat="44.46351" lon="2.84214">
        <ele>683</ele>
        <time>2021-06-03T22:58:45Z</time>
      </trkpt>
      <trkpt lat="44.46166" lon="2.84371">
        <ele>693</ele>
        <time>2021-06-03T23:00:34Z</time>
      </trkpt>
      <trkpt lat="44.45992" lon="2.84509">
        <ele>689</ele>
        <time>2021-06-03T23:02:14Z</time>
      </trkpt>
      <trkpt lat="44.45947" lon="2.84382">
        <ele>685</ele>
        <time>2021-06-03T23:03:04Z</time>
      </trkpt>
      <trkpt lat="44.45533" lon="2.84085">
        <ele>639</ele>
        <time>2021-06-03T23:06:57Z</time>
      </trkpt>
      <trkpt lat="44.45465" lon="2.83974">
        <ele>628</ele>
        <time>2021-06-03T23:07:49Z</time>
      </trkpt>
      <trkpt lat="44.45492" lon="2.83928">
        <ele>627</ele>
        <time>2021-06-03T23:08:11Z</time>
      </trkpt>
      <trkpt lat="44.45464" lon="2.83789">
        <ele>616</ele>
        <time>2021-06-03T23:09:02Z</time>
      </trkpt>
      <trkpt lat="44.45464" lon="2.83673">
        <ele>608</ele>
        <time>2021-06-03T23:09:44Z</time>
      </trkpt>
      <trkpt lat="44.45569" lon="2.83623">
        <ele>603</ele>
        <time>2021-06-03T23:10:39Z</time>
      </trkpt>
      <trkpt lat="44.4559" lon="2.83556">
        <ele>598</ele>
        <time>2021-06-03T23:11:05Z</time>
      </trkpt>
      <trkpt lat="44.45555" lon="2.83399">
        <ele>581</ele>
        <time>2021-06-03T23:12:04Z</time>
      </trkpt>
      <trkpt lat="44.45616" lon="2.83301">
        <ele>582</ele>
        <time>2021-06-03T23:12:51Z</time>
      </trkpt>
      <trkpt lat="44.45542" lon="2.83262">
        <ele>583</ele>
        <time>2021-06-03T23:13:30Z</time>
      </trkpt>
      <trkpt lat="44.45632" lon="2.83211">
        <ele>592</ele>
        <time>2021-06-03T23:14:19Z</time>
      </trkpt>
      <trkpt lat="44.45738" lon="2.83107">
        <ele>605</ele>
        <time>2021-06-03T23:15:23Z</time>
      </trkpt>
      <trkpt lat="44.45716" lon="2.83076">
        <ele>605</ele>
        <time>2021-06-03T23:15:39Z</time>
      </trkpt>
      <trkpt lat="44.4572" lon="2.8304">
        <ele>605</ele>
        <time>2021-06-03T23:15:52Z</time>
      </trkpt>
      <trkpt lat="44.45683" lon="2.8294">
        <ele>601</ele>
        <time>2021-06-03T23:16:32Z</time>
      </trkpt>
      <trkpt lat="44.45646" lon="2.82849">
        <ele>599</ele>
        <time>2021-06-03T23:17:10Z</time>
      </trkpt>
      <trkpt lat="44.45681" lon="2.82802">
        <ele>602</ele>
        <time>2021-06-03T23:17:34Z</time>
      </trkpt>
      <trkpt lat="44.45683" lon="2.82772">
        <ele>603</ele>
        <time>2021-06-03T23:17:45Z</time>
      </trkpt>
      <trkpt lat="44.45643" lon="2.82762">
        <ele>603</ele>
        <time>2021-06-03T23:18:05Z</time>
      </trkpt>
      <trkpt lat="44.45602" lon="2.82771">
        <ele>602</ele>
        <time>2021-06-03T23:18:26Z</time>
      </trkpt>
      <trkpt lat="44.45573" lon="2.82756">
        <ele>603</ele>
        <time>2021-06-03T23:18:41Z</time>
      </trkpt>
      <trkpt lat="44.45553" lon="2.82716">
        <ele>608</ele>
        <time>2021-06-03T23:18:59Z</time>
      </trkpt>
      <trkpt lat="44.45555" lon="2.82645">
        <ele>618</ele>
        <time>2021-06-03T23:19:24Z</time>
      </trkpt>
      <trkpt lat="44.45549" lon="2.82618">
        <ele>622</ele>
        <time>2021-06-03T23:19:34Z</time>
      </trkpt>
      <trkpt lat="44.45528" lon="2.82597">
        <ele>626</ele>
        <time>2021-06-03T23:19:47Z</time>
      </trkpt>
      <trkpt lat="44.45528" lon="2.82563">
        <ele>629</ele>
        <time>2021-06-03T23:19:59Z</time>
      </trkpt>
      <trkpt lat="44.45515" lon="2.82564">
        <ele>629</ele>
        <time>2021-06-03T23:20:06Z</time>
      </trkpt>
      <trkpt lat="44.45497" lon="2.82581">
        <ele>628</ele>
        <time>2021-06-03T23:20:17Z</time>
      </trkpt>
      <trkpt lat="44.45487" lon="2.82581">
        <ele>628</ele>
        <time>2021-06-03T23:20:22Z</time>
      </trkpt>
      <trkpt lat="44.45482" lon="2.82607">
        <ele>624</ele>
        <time>2021-06-03T23:20:31Z</time>
      </trkpt>
      <trkpt lat="44.45471" lon="2.82625">
        <ele>621</ele>
        <time>2021-06-03T23:20:40Z</time>
      </trkpt>
      <trkpt lat="44.45456" lon="2.82614">
        <ele>622</ele>
        <time>2021-06-03T23:20:48Z</time>
      </trkpt>
      <trkpt lat="44.45434" lon="2.82569">
        <ele>627</ele>
        <time>2021-06-03T23:21:08Z</time>
      </trkpt>
      <trkpt lat="44.45457" lon="2.82514">
        <ele>633</ele>
        <time>2021-06-03T23:21:30Z</time>
      </trkpt>
      <trkpt lat="44.45477" lon="2.82528">
        <ele>632</ele>
        <time>2021-06-03T23:21:42Z</time>
      </trkpt>
      <trkpt lat="44.45504" lon="2.82515">
        <ele>634</ele>
        <time>2021-06-03T23:21:56Z</time>
      </trkpt>
      <trkpt lat="44.45506" lon="2.82476">
        <ele>636</ele>
        <time>2021-06-03T23:22:10Z</time>
      </trkpt>
    </trkseg>
  </trk>
</gpx>